sensor_id;sensor_type;location;lat;lon;timestamp;temperature;humidity
16578;DHT22;8401;52.528;13.340;2023-01-01T00:01:16;16.00;99.90
16578;DHT22;8401;52.528;13.340;2023-01-01T00:03:42;15.90;99.90
16578;DHT22;8401;52.528;13.340;2023-01-01T00:06:12;15.90;99.90
16578;DHT22;8401;52.528;13.340;2023-01-01T00:08:38;15.90;99.90
16578;DHT22;8401;52.528;13.340;2023-01-01T00:11:06;15.90;99.90
16578;DHT22;8401;52.528;13.340;2023-01-01T00:13:33;15.90;99.90
16578;DHT22;8401;52.528;13.340;2023-01-01T00:16:11;16.00;99.90
16578;DHT22;8401;52.528;13.340;2023-01-01T00:18:37;15.90;99.90
16578;DHT22;8401;52.528;13.340;2023-01-01T00:21:09;15.90;99.90
16578;DHT22;8401;52.528;13.340;2023-01-01T00:23:36;15.90;99.90
16578;DHT22;8401;52.528;13.340;2023-01-01T00:26:12;16.00;99.90
16578;DHT22;8401;52.528;13.340;2023-01-01T00:28:38;16.00;99.90
16578;DHT22;8401;52.528;13.340;2023-01-01T00:31:12;16.00;99.90
16578;DHT22;8401;52.528;13.340;2023-01-01T00:33:38;16.00;99.90
16578;DHT22;8401;52.528;13.340;2023-01-01T00:36:06;16.00;99.90
16578;DHT22;8401;52.528;13.340;2023-01-01T00:38:32;16.00;99.90
16578;DHT22;8401;52.528;13.340;2023-01-01T00:40:58;16.00;99.90
16578;DHT22;8401;52.528;13.340;2023-01-01T00:43:24;16.00;99.90
16578;DHT22;8401;52.528;13.340;2023-01-01T00:45:49;16.00;99.90
16578;DHT22;8401;52.528;13.340;2023-01-01T00:48:18;16.00;99.90
16578;DHT22;8401;52.528;13.340;2023-01-01T00:50:46;16.10;99.90
16578;DHT22;8401;52.528;13.340;2023-01-01T00:53:12;16.10;99.90
16578;DHT22;8401;52.528;13.340;2023-01-01T00:55:41;16.00;99.90
16578;DHT22;8401;52.528;13.340;2023-01-01T00:58:07;16.00;99.90
16578;DHT22;8401;52.528;13.340;2023-01-01T01:00:34;16.10;99.90
16578;DHT22;8401;52.528;13.340;2023-01-01T01:03:00;16.10;99.90
16578;DHT22;8401;52.528;13.340;2023-01-01T01:05:26;16.00;99.90
16578;DHT22;8401;52.528;13.340;2023-01-01T01:07:52;16.10;99.90
16578;DHT22;8401;52.528;13.340;2023-01-01T01:10:17;16.10;99.90
16578;DHT22;8401;52.528;13.340;2023-01-01T01:12:46;16.10;99.90
16578;DHT22;8401;52.528;13.340;2023-01-01T01:15:12;16.10;99.90
16578;DHT22;8401;52.528;13.340;2023-01-01T01:17:38;16.10;99.90
16578;DHT22;8401;52.528;13.340;2023-01-01T01:20:05;16.10;99.90
16578;DHT22;8401;52.528;13.340;2023-01-01T01:22:31;16.10;99.90
16578;DHT22;8401;52.528;13.340;2023-01-01T01:24:59;16.00;99.90
16578;DHT22;8401;52.528;13.340;2023-01-01T01:27:25;16.00;99.90
16578;DHT22;8401;52.528;13.340;2023-01-01T01:29:50;16.00;99.90
16578;DHT22;8401;52.528;13.340;2023-01-01T01:32:16;16.00;99.90
16578;DHT22;8401;52.528;13.340;2023-01-01T01:34:42;15.90;99.90
16578;DHT22;8401;52.528;13.340;2023-01-01T01:37:08;15.90;99.90
16578;DHT22;8401;52.528;13.340;2023-01-01T01:39:33;16.00;99.90
16578;DHT22;8401;52.528;13.340;2023-01-01T01:42:00;16.00;99.90
16578;DHT22;8401;52.528;13.340;2023-01-01T01:49:41;16.00;99.90
16578;DHT22;8401;52.528;13.340;2023-01-01T01:52:08;16.00;99.90
16578;DHT22;8401;52.528;13.340;2023-01-01T01:54:34;16.00;99.90
16578;DHT22;8401;52.528;13.340;2023-01-01T01:57:02;16.00;99.90
16578;DHT22;8401;52.528;13.340;2023-01-01T01:59:32;16.00;99.90
16578;DHT22;8401;52.528;13.340;2023-01-01T02:02:00;16.00;99.90
16578;DHT22;8401;52.528;13.340;2023-01-01T02:04:26;16.00;99.90
16578;DHT22;8401;52.528;13.340;2023-01-01T02:06:52;15.90;99.90
16578;DHT22;8401;52.528;13.340;2023-01-01T02:09:19;16.00;99.90
16578;DHT22;8401;52.528;13.340;2023-01-01T02:11:45;15.90;99.90
16578;DHT22;8401;52.528;13.340;2023-01-01T02:14:11;15.90;99.90
16578;DHT22;8401;52.528;13.340;2023-01-01T02:16:44;16.00;99.90
16578;DHT22;8401;52.528;13.340;2023-01-01T02:30:40;15.90;99.90
16578;DHT22;8401;52.528;13.340;2023-01-01T02:33:11;15.90;99.90
16578;DHT22;8401;52.528;13.340;2023-01-01T02:35:44;16.00;99.90
16578;DHT22;8401;52.528;13.340;2023-01-01T02:38:27;16.00;99.90
16578;DHT22;8401;52.528;13.340;2023-01-01T02:40:59;15.90;99.90
16578;DHT22;8401;52.528;13.340;2023-01-01T02:43:26;15.90;99.90
16578;DHT22;8401;52.528;13.340;2023-01-01T02:45:55;15.90;99.90
16578;DHT22;8401;52.528;13.340;2023-01-01T02:48:53;15.90;99.90
16578;DHT22;8401;52.528;13.340;2023-01-01T02:56:47;15.80;99.90
16578;DHT22;8401;52.528;13.340;2023-01-01T03:11:54;15.80;99.90
16578;DHT22;8401;52.528;13.340;2023-01-01T03:14:43;15.70;99.90
16578;DHT22;8401;52.528;13.340;2023-01-01T03:19:48;15.70;99.90
16578;DHT22;8401;52.528;13.340;2023-01-01T03:22:16;15.70;99.90
16578;DHT22;8401;52.528;13.340;2023-01-01T03:25:09;15.70;99.90
16578;DHT22;8401;52.528;13.340;2023-01-01T03:27:39;15.70;99.90
16578;DHT22;8401;52.528;13.340;2023-01-01T03:30:08;15.60;99.90
16578;DHT22;8401;52.528;13.340;2023-01-01T03:32:57;15.60;99.90
16578;DHT22;8401;52.528;13.340;2023-01-01T03:35:41;15.60;99.90
16578;DHT22;8401;52.528;13.340;2023-01-01T03:38:19;15.70;99.90
16578;DHT22;8401;52.528;13.340;2023-01-01T03:40:47;15.70;99.90
16578;DHT22;8401;52.528;13.340;2023-01-01T03:43:21;15.60;99.90
16578;DHT22;8401;52.528;13.340;2023-01-01T03:45:50;15.60;99.90
16578;DHT22;8401;52.528;13.340;2023-01-01T03:48:17;15.60;99.90
16578;DHT22;8401;52.528;13.340;2023-01-01T03:51:01;15.50;99.90
16578;DHT22;8401;52.528;13.340;2023-01-01T03:53:39;15.50;99.90
16578;DHT22;8401;52.528;13.340;2023-01-01T03:59:10;15.60;99.90
16578;DHT22;8401;52.528;13.340;2023-01-01T04:01:42;15.60;99.90
16578;DHT22;8401;52.528;13.340;2023-01-01T04:04:09;15.60;99.90
16578;DHT22;8401;52.528;13.340;2023-01-01T04:06:35;15.60;99.90
16578;DHT22;8401;52.528;13.340;2023-01-01T04:09:02;15.60;99.90
16578;DHT22;8401;52.528;13.340;2023-01-01T04:11:30;15.50;99.90
16578;DHT22;8401;52.528;13.340;2023-01-01T04:14:30;15.50;99.90
16578;DHT22;8401;52.528;13.340;2023-01-01T04:16:56;15.50;99.90
16578;DHT22;8401;52.528;13.340;2023-01-01T04:19:22;15.50;99.90
16578;DHT22;8401;52.528;13.340;2023-01-01T04:21:48;15.50;99.90
16578;DHT22;8401;52.528;13.340;2023-01-01T04:24:14;15.50;99.90
16578;DHT22;8401;52.528;13.340;2023-01-01T04:26:40;15.40;99.90
16578;DHT22;8401;52.528;13.340;2023-01-01T04:29:05;15.50;99.90
16578;DHT22;8401;52.528;13.340;2023-01-01T04:31:33;15.40;99.90
16578;DHT22;8401;52.528;13.340;2023-01-01T04:33:59;15.40;99.90
16578;DHT22;8401;52.528;13.340;2023-01-01T04:36:24;15.40;99.90
16578;DHT22;8401;52.528;13.340;2023-01-01T04:38:50;15.40;99.90
16578;DHT22;8401;52.528;13.340;2023-01-01T04:41:16;15.40;99.90
16578;DHT22;8401;52.528;13.340;2023-01-01T04:43:45;15.40;99.90
16578;DHT22;8401;52.528;13.340;2023-01-01T04:46:10;15.30;99.90
16578;DHT22;8401;52.528;13.340;2023-01-01T04:48:36;15.30;99.90
16578;DHT22;8401;52.528;13.340;2023-01-01T04:51:03;15.20;99.90
16578;DHT22;8401;52.528;13.340;2023-01-01T04:53:31;15.20;99.90
16578;DHT22;8401;52.528;13.340;2023-01-01T04:58:30;15.30;99.90
16578;DHT22;8401;52.528;13.340;2023-01-01T05:00:56;15.20;99.90
16578;DHT22;8401;52.528;13.340;2023-01-01T05:03:22;15.20;99.90
16578;DHT22;8401;52.528;13.340;2023-01-01T05:05:57;15.30;99.90
16578;DHT22;8401;52.528;13.340;2023-01-01T05:08:28;15.20;99.90
16578;DHT22;8401;52.528;13.340;2023-01-01T05:11:12;15.20;99.90
16578;DHT22;8401;52.528;13.340;2023-01-01T05:13:39;15.20;99.90
16578;DHT22;8401;52.528;13.340;2023-01-01T05:16:08;15.20;99.90
16578;DHT22;8401;52.528;13.340;2023-01-01T05:18:35;15.20;99.90
16578;DHT22;8401;52.528;13.340;2023-01-01T05:21:08;15.20;99.90
16578;DHT22;8401;52.528;13.340;2023-01-01T05:23:34;15.20;99.90
16578;DHT22;8401;52.528;13.340;2023-01-01T05:25:59;15.20;99.90
16578;DHT22;8401;52.528;13.340;2023-01-01T05:28:32;15.10;99.90
16578;DHT22;8401;52.528;13.340;2023-01-01T05:30:57;15.10;99.90
16578;DHT22;8401;52.528;13.340;2023-01-01T05:33:23;15.10;99.90
16578;DHT22;8401;52.528;13.340;2023-01-01T05:35:53;15.10;99.90
16578;DHT22;8401;52.528;13.340;2023-01-01T05:38:19;15.10;99.90
16578;DHT22;8401;52.528;13.340;2023-01-01T05:40:45;15.20;99.90
16578;DHT22;8401;52.528;13.340;2023-01-01T05:43:10;15.10;99.90
16578;DHT22;8401;52.528;13.340;2023-01-01T05:45:36;15.20;99.90
16578;DHT22;8401;52.528;13.340;2023-01-01T05:48:01;15.20;99.90
16578;DHT22;8401;52.528;13.340;2023-01-01T05:50:28;15.20;99.90
16578;DHT22;8401;52.528;13.340;2023-01-01T05:52:54;15.10;99.90
16578;DHT22;8401;52.528;13.340;2023-01-01T05:55:19;15.10;99.90
16578;DHT22;8401;52.528;13.340;2023-01-01T05:57:45;15.10;99.90
16578;DHT22;8401;52.528;13.340;2023-01-01T06:00:11;15.10;99.90
16578;DHT22;8401;52.528;13.340;2023-01-01T06:02:37;15.10;99.90
16578;DHT22;8401;52.528;13.340;2023-01-01T06:05:02;15.10;99.90
16578;DHT22;8401;52.528;13.340;2023-01-01T06:07:28;15.20;99.90
16578;DHT22;8401;52.528;13.340;2023-01-01T06:09:54;15.20;99.90
16578;DHT22;8401;52.528;13.340;2023-01-01T06:12:19;15.20;99.90
16578;DHT22;8401;52.528;13.340;2023-01-01T06:14:45;15.20;99.90
16578;DHT22;8401;52.528;13.340;2023-01-01T06:17:10;15.20;99.90
16578;DHT22;8401;52.528;13.340;2023-01-01T06:19:36;15.20;99.90
16578;DHT22;8401;52.528;13.340;2023-01-01T06:22:02;15.20;99.90
16578;DHT22;8401;52.528;13.340;2023-01-01T06:24:27;15.20;99.90
16578;DHT22;8401;52.528;13.340;2023-01-01T06:26:53;15.20;99.90
16578;DHT22;8401;52.528;13.340;2023-01-01T06:29:18;15.20;99.90
16578;DHT22;8401;52.528;13.340;2023-01-01T06:31:44;15.20;99.90
16578;DHT22;8401;52.528;13.340;2023-01-01T06:34:10;15.10;99.90
16578;DHT22;8401;52.528;13.340;2023-01-01T06:36:35;15.10;99.90
16578;DHT22;8401;52.528;13.340;2023-01-01T06:39:01;15.10;99.90
16578;DHT22;8401;52.528;13.340;2023-01-01T06:41:28;15.10;99.90
16578;DHT22;8401;52.528;13.340;2023-01-01T06:43:55;15.10;99.90
16578;DHT22;8401;52.528;13.340;2023-01-01T06:46:22;15.10;99.90
16578;DHT22;8401;52.528;13.340;2023-01-01T06:48:49;15.10;99.90
16578;DHT22;8401;52.528;13.340;2023-01-01T06:51:17;15.10;99.90
16578;DHT22;8401;52.528;13.340;2023-01-01T06:53:44;15.00;99.90
16578;DHT22;8401;52.528;13.340;2023-01-01T06:56:10;15.00;99.90
16578;DHT22;8401;52.528;13.340;2023-01-01T06:58:36;15.00;99.90
16578;DHT22;8401;52.528;13.340;2023-01-01T07:01:06;15.00;99.90
16578;DHT22;8401;52.528;13.340;2023-01-01T07:03:33;14.90;99.90
16578;DHT22;8401;52.528;13.340;2023-01-01T07:05:59;15.00;99.90
16578;DHT22;8401;52.528;13.340;2023-01-01T07:08:25;15.00;99.90
16578;DHT22;8401;52.528;13.340;2023-01-01T07:10:50;15.00;99.90
16578;DHT22;8401;52.528;13.340;2023-01-01T07:13:16;14.90;99.90
16578;DHT22;8401;52.528;13.340;2023-01-01T07:15:41;14.90;99.90
16578;DHT22;8401;52.528;13.340;2023-01-01T07:18:08;15.00;99.90
16578;DHT22;8401;52.528;13.340;2023-01-01T07:20:34;14.90;99.90
16578;DHT22;8401;52.528;13.340;2023-01-01T07:23:00;15.00;99.90
16578;DHT22;8401;52.528;13.340;2023-01-01T07:25:28;14.90;99.90
16578;DHT22;8401;52.528;13.340;2023-01-01T07:27:54;14.90;99.90
16578;DHT22;8401;52.528;13.340;2023-01-01T07:30:20;14.90;99.90
16578;DHT22;8401;52.528;13.340;2023-01-01T07:32:52;14.90;99.90
16578;DHT22;8401;52.528;13.340;2023-01-01T07:35:18;15.00;99.90
16578;DHT22;8401;52.528;13.340;2023-01-01T07:37:44;15.00;99.90
16578;DHT22;8401;52.528;13.340;2023-01-01T07:40:10;15.00;99.90
16578;DHT22;8401;52.528;13.340;2023-01-01T07:42:35;15.00;99.90
16578;DHT22;8401;52.528;13.340;2023-01-01T07:45:01;15.00;99.90
16578;DHT22;8401;52.528;13.340;2023-01-01T07:47:26;15.10;99.90
16578;DHT22;8401;52.528;13.340;2023-01-01T07:49:52;15.10;99.90
16578;DHT22;8401;52.528;13.340;2023-01-01T07:52:18;15.10;99.90
16578;DHT22;8401;52.528;13.340;2023-01-01T07:54:44;15.00;99.90
16578;DHT22;8401;52.528;13.340;2023-01-01T07:57:09;15.10;99.90
16578;DHT22;8401;52.528;13.340;2023-01-01T07:59:35;15.00;99.90
16578;DHT22;8401;52.528;13.340;2023-01-01T08:02:02;15.00;99.90
16578;DHT22;8401;52.528;13.340;2023-01-01T08:04:27;15.00;99.90
16578;DHT22;8401;52.528;13.340;2023-01-01T08:06:53;15.00;99.90
16578;DHT22;8401;52.528;13.340;2023-01-01T08:09:19;15.10;99.90
16578;DHT22;8401;52.528;13.340;2023-01-01T08:11:45;15.00;99.90
16578;DHT22;8401;52.528;13.340;2023-01-01T08:14:11;15.10;99.90
16578;DHT22;8401;52.528;13.340;2023-01-01T08:16:37;15.10;99.90
16578;DHT22;8401;52.528;13.340;2023-01-01T08:19:03;15.10;99.90
16578;DHT22;8401;52.528;13.340;2023-01-01T08:21:29;15.10;99.90
16578;DHT22;8401;52.528;13.340;2023-01-01T08:23:54;15.10;99.90
16578;DHT22;8401;52.528;13.340;2023-01-01T08:26:33;15.20;99.90
16578;DHT22;8401;52.528;13.340;2023-01-01T08:29:03;15.20;99.90
16578;DHT22;8401;52.528;13.340;2023-01-01T08:31:29;15.30;99.90
16578;DHT22;8401;52.528;13.340;2023-01-01T08:33:55;15.20;99.90
16578;DHT22;8401;52.528;13.340;2023-01-01T08:36:21;15.20;99.90
16578;DHT22;8401;52.528;13.340;2023-01-01T08:38:47;15.20;99.90
16578;DHT22;8401;52.528;13.340;2023-01-01T08:41:12;15.20;99.90
16578;DHT22;8401;52.528;13.340;2023-01-01T08:43:38;15.30;99.90
16578;DHT22;8401;52.528;13.340;2023-01-01T08:46:04;15.30;99.90
16578;DHT22;8401;52.528;13.340;2023-01-01T08:48:29;15.30;99.90
16578;DHT22;8401;52.528;13.340;2023-01-01T08:50:57;15.30;99.90
16578;DHT22;8401;52.528;13.340;2023-01-01T08:53:27;15.30;99.90
16578;DHT22;8401;52.528;13.340;2023-01-01T08:56:07;15.30;99.90
16578;DHT22;8401;52.528;13.340;2023-01-01T08:58:35;15.30;99.90
16578;DHT22;8401;52.528;13.340;2023-01-01T09:01:01;15.30;99.90
16578;DHT22;8401;52.528;13.340;2023-01-01T09:03:27;15.30;99.90
16578;DHT22;8401;52.528;13.340;2023-01-01T09:05:53;15.30;99.90
16578;DHT22;8401;52.528;13.340;2023-01-01T09:08:19;15.30;99.90
16578;DHT22;8401;52.528;13.340;2023-01-01T09:10:46;15.30;99.90
16578;DHT22;8401;52.528;13.340;2023-01-01T09:13:14;15.30;99.90
16578;DHT22;8401;52.528;13.340;2023-01-01T09:15:41;15.40;99.90
16578;DHT22;8401;52.528;13.340;2023-01-01T09:18:10;15.30;99.90
16578;DHT22;8401;52.528;13.340;2023-01-01T09:20:36;15.30;99.90
16578;DHT22;8401;52.528;13.340;2023-01-01T09:23:03;15.40;99.90
16578;DHT22;8401;52.528;13.340;2023-01-01T09:25:29;15.30;99.90
16578;DHT22;8401;52.528;13.340;2023-01-01T09:28:03;15.30;99.90
16578;DHT22;8401;52.528;13.340;2023-01-01T09:30:29;15.40;99.90
16578;DHT22;8401;52.528;13.340;2023-01-01T09:32:54;15.40;99.90
16578;DHT22;8401;52.528;13.340;2023-01-01T09:35:20;15.40;99.90
16578;DHT22;8401;52.528;13.340;2023-01-01T09:37:47;15.40;99.90
16578;DHT22;8401;52.528;13.340;2023-01-01T09:43:44;15.50;99.90
16578;DHT22;8401;52.528;13.340;2023-01-01T09:46:06;15.60;99.90
16578;DHT22;8401;52.528;13.340;2023-01-01T09:48:37;15.70;99.90
16578;DHT22;8401;52.528;13.340;2023-01-01T09:51:06;15.70;99.90
16578;DHT22;8401;52.528;13.340;2023-01-01T09:53:56;15.80;99.90
16578;DHT22;8401;52.528;13.340;2023-01-01T09:56:26;15.90;99.90
16578;DHT22;8401;52.528;13.340;2023-01-01T09:58:52;15.90;99.90
16578;DHT22;8401;52.528;13.340;2023-01-01T10:09:13;15.90;99.90
16578;DHT22;8401;52.528;13.340;2023-01-01T10:12:07;15.90;99.90
16578;DHT22;8401;52.528;13.340;2023-01-01T10:14:43;15.90;99.90
16578;DHT22;8401;52.528;13.340;2023-01-01T10:17:17;16.00;99.90
16578;DHT22;8401;52.528;13.340;2023-01-01T10:19:48;16.00;99.90
16578;DHT22;8401;52.528;13.340;2023-01-01T10:22:28;16.00;99.90
16578;DHT22;8401;52.528;13.340;2023-01-01T10:25:03;16.00;99.90
16578;DHT22;8401;52.528;13.340;2023-01-01T10:27:34;16.00;99.90
16578;DHT22;8401;52.528;13.340;2023-01-01T10:30:07;16.00;99.90
16578;DHT22;8401;52.528;13.340;2023-01-01T10:32:37;16.10;99.90
16578;DHT22;8401;52.528;13.340;2023-01-01T10:35:16;16.10;99.90
16578;DHT22;8401;52.528;13.340;2023-01-01T10:37:42;16.20;99.90
16578;DHT22;8401;52.528;13.340;2023-01-01T10:40:23;16.10;99.90
16578;DHT22;8401;52.528;13.340;2023-01-01T10:42:52;16.00;99.90
16578;DHT22;8401;52.528;13.340;2023-01-01T10:45:43;16.10;99.90
16578;DHT22;8401;52.528;13.340;2023-01-01T10:48:20;16.00;99.90
16578;DHT22;8401;52.528;13.340;2023-01-01T10:50:55;15.90;99.90
16578;DHT22;8401;52.528;13.340;2023-01-01T10:53:37;16.00;99.90
16578;DHT22;8401;52.528;13.340;2023-01-01T10:56:11;16.00;99.90
16578;DHT22;8401;52.528;13.340;2023-01-01T11:01:10;16.00;99.90
16578;DHT22;8401;52.528;13.340;2023-01-01T11:03:36;16.10;99.90
16578;DHT22;8401;52.528;13.340;2023-01-01T11:06:21;16.20;99.90
16578;DHT22;8401;52.528;13.340;2023-01-01T11:08:49;16.00;99.90
16578;DHT22;8401;52.528;13.340;2023-01-01T11:11:26;16.00;99.90
16578;DHT22;8401;52.528;13.340;2023-01-01T11:13:55;16.00;99.90
16578;DHT22;8401;52.528;13.340;2023-01-01T11:16:21;15.90;99.90
16578;DHT22;8401;52.528;13.340;2023-01-01T11:18:48;15.90;99.90
16578;DHT22;8401;52.528;13.340;2023-01-01T11:21:21;15.90;99.90
16578;DHT22;8401;52.528;13.340;2023-01-01T11:23:50;16.00;99.90
16578;DHT22;8401;52.528;13.340;2023-01-01T11:26:19;15.90;99.90
16578;DHT22;8401;52.528;13.340;2023-01-01T11:29:16;15.80;99.90
16578;DHT22;8401;52.528;13.340;2023-01-01T11:31:45;15.80;99.90
16578;DHT22;8401;52.528;13.340;2023-01-01T11:34:29;15.80;99.90
16578;DHT22;8401;52.528;13.340;2023-01-01T11:37:17;15.80;99.90
16578;DHT22;8401;52.528;13.340;2023-01-01T11:39:50;15.80;99.90
16578;DHT22;8401;52.528;13.340;2023-01-01T11:42:25;15.80;99.90
16578;DHT22;8401;52.528;13.340;2023-01-01T11:44:54;16.00;99.90
16578;DHT22;8401;52.528;13.340;2023-01-01T11:47:24;16.00;99.90
16578;DHT22;8401;52.528;13.340;2023-01-01T11:50:18;16.00;99.90
16578;DHT22;8401;52.528;13.340;2023-01-01T11:52:49;16.20;99.90
16578;DHT22;8401;52.528;13.340;2023-01-01T12:00:21;16.20;99.90
16578;DHT22;8401;52.528;13.340;2023-01-01T12:02:56;16.10;99.90
16578;DHT22;8401;52.528;13.340;2023-01-01T12:05:54;16.10;99.90
16578;DHT22;8401;52.528;13.340;2023-01-01T12:08:35;16.10;99.90
16578;DHT22;8401;52.528;13.340;2023-01-01T12:13:52;15.90;99.90
16578;DHT22;8401;52.528;13.340;2023-01-01T12:16:24;15.90;99.90
16578;DHT22;8401;52.528;13.340;2023-01-01T12:19:23;15.90;99.90
16578;DHT22;8401;52.528;13.340;2023-01-01T12:21:54;15.90;99.90
16578;DHT22;8401;52.528;13.340;2023-01-01T12:24:21;15.90;99.90
16578;DHT22;8401;52.528;13.340;2023-01-01T12:32:33;15.80;99.90
16578;DHT22;8401;52.528;13.340;2023-01-01T12:35:16;16.00;99.90
16578;DHT22;8401;52.528;13.340;2023-01-01T12:41:10;16.00;99.90
16578;DHT22;8401;52.528;13.340;2023-01-01T12:57:28;16.00;99.90
16578;DHT22;8401;52.528;13.340;2023-01-01T12:59:53;16.00;99.90
16578;DHT22;8401;52.528;13.340;2023-01-01T13:02:24;15.90;99.90
16578;DHT22;8401;52.528;13.340;2023-01-01T13:04:54;15.90;99.90
16578;DHT22;8401;52.528;13.340;2023-01-01T13:07:34;15.90;99.90
16578;DHT22;8401;52.528;13.340;2023-01-01T13:10:30;15.90;99.90
16578;DHT22;8401;52.528;13.340;2023-01-01T13:12:54;15.80;99.90
16578;DHT22;8401;52.528;13.340;2023-01-01T13:18:06;15.70;99.90
16578;DHT22;8401;52.528;13.340;2023-01-01T13:20:35;15.80;99.90
16578;DHT22;8401;52.528;13.340;2023-01-01T13:23:03;15.70;99.90
16578;DHT22;8401;52.528;13.340;2023-01-01T13:25:29;15.90;99.90
16578;DHT22;8401;52.528;13.340;2023-01-01T13:41:39;15.80;99.90
16578;DHT22;8401;52.528;13.340;2023-01-01T13:49:33;15.60;99.90
16578;DHT22;8401;52.528;13.340;2023-01-01T14:02:34;15.50;99.90
16578;DHT22;8401;52.528;13.340;2023-01-01T14:05:02;15.50;99.90
16578;DHT22;8401;52.528;13.340;2023-01-01T14:15:33;15.40;99.90
16578;DHT22;8401;52.528;13.340;2023-01-01T14:18:03;15.40;99.90
16578;DHT22;8401;52.528;13.340;2023-01-01T14:20:38;15.40;99.90
16578;DHT22;8401;52.528;13.340;2023-01-01T14:23:09;15.40;99.90
16578;DHT22;8401;52.528;13.340;2023-01-01T14:25:37;15.30;99.90
16578;DHT22;8401;52.528;13.340;2023-01-01T14:28:04;15.30;99.90
16578;DHT22;8401;52.528;13.340;2023-01-01T14:30:36;15.20;99.90
16578;DHT22;8401;52.528;13.340;2023-01-01T14:33:02;15.30;99.90
16578;DHT22;8401;52.528;13.340;2023-01-01T14:35:28;15.20;99.90
16578;DHT22;8401;52.528;13.340;2023-01-01T14:37:54;15.10;99.90
16578;DHT22;8401;52.528;13.340;2023-01-01T14:40:24;15.20;99.90
16578;DHT22;8401;52.528;13.340;2023-01-01T14:43:04;15.10;99.90
16578;DHT22;8401;52.528;13.340;2023-01-01T14:45:34;15.10;99.90
16578;DHT22;8401;52.528;13.340;2023-01-01T14:48:00;15.00;99.90
16578;DHT22;8401;52.528;13.340;2023-01-01T14:50:30;15.00;99.90
16578;DHT22;8401;52.528;13.340;2023-01-01T14:53:06;15.00;99.90
16578;DHT22;8401;52.528;13.340;2023-01-01T14:55:39;14.90;99.90
16578;DHT22;8401;52.528;13.340;2023-01-01T14:58:08;14.90;99.90
16578;DHT22;8401;52.528;13.340;2023-01-01T15:00:35;14.90;99.90
16578;DHT22;8401;52.528;13.340;2023-01-01T15:03:21;14.90;99.90
16578;DHT22;8401;52.528;13.340;2023-01-01T15:06:01;14.90;99.90
16578;DHT22;8401;52.528;13.340;2023-01-01T15:08:27;14.80;99.90
16578;DHT22;8401;52.528;13.340;2023-01-01T15:10:54;14.80;99.90
16578;DHT22;8401;52.528;13.340;2023-01-01T15:13:25;14.80;99.90
16578;DHT22;8401;52.528;13.340;2023-01-01T15:15:56;14.70;99.90
16578;DHT22;8401;52.528;13.340;2023-01-01T15:18:41;14.60;99.90
16578;DHT22;8401;52.528;13.340;2023-01-01T15:21:38;14.60;99.90
16578;DHT22;8401;52.528;13.340;2023-01-01T15:24:13;14.60;99.90
16578;DHT22;8401;52.528;13.340;2023-01-01T15:26:57;14.60;99.90
16578;DHT22;8401;52.528;13.340;2023-01-01T15:29:35;14.60;99.90
16578;DHT22;8401;52.528;13.340;2023-01-01T15:32:07;14.60;99.90
16578;DHT22;8401;52.528;13.340;2023-01-01T15:34:41;14.60;99.90
16578;DHT22;8401;52.528;13.340;2023-01-01T15:39:56;14.70;99.90
16578;DHT22;8401;52.528;13.340;2023-01-01T15:42:40;14.60;99.90
16578;DHT22;8401;52.528;13.340;2023-01-01T15:47:37;14.60;99.90
16578;DHT22;8401;52.528;13.340;2023-01-01T15:52:42;14.50;99.90
16578;DHT22;8401;52.528;13.340;2023-01-01T15:55:15;14.50;99.90
16578;DHT22;8401;52.528;13.340;2023-01-01T15:57:45;14.40;99.90
16578;DHT22;8401;52.528;13.340;2023-01-01T16:00:23;14.30;99.90
16578;DHT22;8401;52.528;13.340;2023-01-01T16:02:54;14.20;99.90
16578;DHT22;8401;52.528;13.340;2023-01-01T16:05:23;14.20;99.90
16578;DHT22;8401;52.528;13.340;2023-01-01T16:08:03;14.20;99.90
16578;DHT22;8401;52.528;13.340;2023-01-01T16:10:30;14.10;99.90
16578;DHT22;8401;52.528;13.340;2023-01-01T16:12:56;14.00;99.90
16578;DHT22;8401;52.528;13.340;2023-01-01T16:15:23;13.90;99.90
16578;DHT22;8401;52.528;13.340;2023-01-01T16:17:49;13.70;99.90
16578;DHT22;8401;52.528;13.340;2023-01-01T16:20:16;13.60;99.90
16578;DHT22;8401;52.528;13.340;2023-01-01T16:22:44;13.50;99.90
16578;DHT22;8401;52.528;13.340;2023-01-01T16:25:21;13.50;99.90
16578;DHT22;8401;52.528;13.340;2023-01-01T16:27:47;13.50;99.90
16578;DHT22;8401;52.528;13.340;2023-01-01T16:30:14;13.40;99.90
16578;DHT22;8401;52.528;13.340;2023-01-01T16:32:40;13.40;99.90
16578;DHT22;8401;52.528;13.340;2023-01-01T16:35:11;13.30;99.90
16578;DHT22;8401;52.528;13.340;2023-01-01T16:37:37;13.30;99.90
16578;DHT22;8401;52.528;13.340;2023-01-01T16:40:03;13.30;99.90
16578;DHT22;8401;52.528;13.340;2023-01-01T16:42:29;13.20;99.90
16578;DHT22;8401;52.528;13.340;2023-01-01T16:44:55;13.20;99.90
16578;DHT22;8401;52.528;13.340;2023-01-01T16:47:21;13.10;99.90
16578;DHT22;8401;52.528;13.340;2023-01-01T16:49:47;13.10;99.90
16578;DHT22;8401;52.528;13.340;2023-01-01T16:52:13;13.10;99.90
16578;DHT22;8401;52.528;13.340;2023-01-01T16:54:38;13.10;99.90
16578;DHT22;8401;52.528;13.340;2023-01-01T16:57:04;13.00;99.90
16578;DHT22;8401;52.528;13.340;2023-01-01T16:59:30;13.00;99.90
16578;DHT22;8401;52.528;13.340;2023-01-01T17:01:56;13.00;99.90
16578;DHT22;8401;52.528;13.340;2023-01-01T17:04:21;13.00;99.90
16578;DHT22;8401;52.528;13.340;2023-01-01T17:06:47;13.00;99.90
16578;DHT22;8401;52.528;13.340;2023-01-01T17:09:13;13.00;99.90
16578;DHT22;8401;52.528;13.340;2023-01-01T17:11:39;13.00;99.90
16578;DHT22;8401;52.528;13.340;2023-01-01T17:14:05;13.00;99.90
16578;DHT22;8401;52.528;13.340;2023-01-01T17:16:31;13.00;99.90
16578;DHT22;8401;52.528;13.340;2023-01-01T17:18:57;13.00;99.90
16578;DHT22;8401;52.528;13.340;2023-01-01T17:21:24;13.00;99.90
16578;DHT22;8401;52.528;13.340;2023-01-01T17:23:50;13.00;99.90
16578;DHT22;8401;52.528;13.340;2023-01-01T17:26:21;13.00;99.90
16578;DHT22;8401;52.528;13.340;2023-01-01T17:28:49;13.00;99.90
16578;DHT22;8401;52.528;13.340;2023-01-01T17:31:17;13.10;99.90
16578;DHT22;8401;52.528;13.340;2023-01-01T17:33:47;13.20;99.90
16578;DHT22;8401;52.528;13.340;2023-01-01T17:36:13;13.30;99.90
16578;DHT22;8401;52.528;13.340;2023-01-01T17:38:40;13.30;99.90
16578;DHT22;8401;52.528;13.340;2023-01-01T17:41:11;13.30;99.90
16578;DHT22;8401;52.528;13.340;2023-01-01T17:43:42;13.20;99.90
16578;DHT22;8401;52.528;13.340;2023-01-01T17:46:22;13.10;99.90
16578;DHT22;8401;52.528;13.340;2023-01-01T17:48:49;13.00;99.90
16578;DHT22;8401;52.528;13.340;2023-01-01T17:51:16;13.10;99.90
16578;DHT22;8401;52.528;13.340;2023-01-01T17:53:42;13.20;99.90
16578;DHT22;8401;52.528;13.340;2023-01-01T17:56:10;13.20;99.90
16578;DHT22;8401;52.528;13.340;2023-01-01T17:58:40;13.40;99.90
16578;DHT22;8401;52.528;13.340;2023-01-01T18:01:10;13.40;99.90